Time;durP1;ratioP1;P1;durP2;ratioP2;P2;SDS_P1;SDS_P2;PMS_P1;PMS_P2;Temp;Humidity;BMP_temperature;BMP_pressure;BME280_temperature;BME280_humidity;BME280_pressure;Samples;Min_cycle;Max_cycle;Signal;HPM_P1;HPM_P2
2022/09/04 00:01:10;;;;;;;47.17;45.38;;;;;;;16.58;61.64;101524.19;5077587;28;20476;-72
2022/09/04 00:04:12;;;;;;;50.67;47.88;;;;;;;16.56;62.25;101521.69;5081075;28;20028;-74
2022/09/04 00:06:48;;;;;;;51.47;49.50;;;;;;;16.43;62.05;101513.44;5076688;28;20511;-72
2022/09/04 00:09:36;;;;;;;52.88;50.35;;;;;;;16.48;62.32;101523.56;5076132;28;20024;-73
2022/09/04 00:12:07;;;;;;;50.85;48.95;;;;;;;16.45;62.61;101525.56;5068084;28;20036;-72
2022/09/04 00:14:46;;;;;;;46.83;45.08;;;;;;;16.37;62.85;101517.59;5074226;28;20579;-72
2022/09/04 00:17:24;;;;;;;50.40;48.38;;;;;;;16.35;62.91;101522.31;5077186;28;20024;-73
2022/09/04 00:20:00;;;;;;;50.45;48.38;;;;;;;16.33;62.75;101516.31;5073167;28;20073;-73
2022/09/04 00:22:57;;;;;;;51.28;49.13;;;;;;;16.30;62.96;101529.13;5074543;28;20595;-72
2022/09/04 00:25:35;;;;;;;48.45;46.67;;;;;;;16.28;62.92;101523.13;5075472;28;20089;-72
2022/09/04 00:28:11;;;;;;;47.58;45.80;;;;;;;16.25;63.14;101529.66;5069979;28;20524;-72
2022/09/04 00:30:49;;;;;;;49.20;47.35;;;;;;;16.21;63.22;101528.31;5082954;28;20047;-72
2022/09/04 00:33:43;;;;;;;44.88;43.15;;;;;;;16.15;63.42;101529.00;5073724;28;20017;-72
2022/09/04 00:36:10;;;;;;;52.67;50.42;;;;;;;16.12;63.38;101534.66;5068818;28;20047;-72
2022/09/04 00:38:57;;;;;;;47.92;46.13;;;;;;;16.11;63.52;101533.00;5076340;28;20061;-72
2022/09/04 00:41:43;;;;;;;47.35;45.55;;;;;;;16.07;63.50;101537.00;5077700;28;20049;-72
2022/09/04 00:44:43;;;;;;;51.80;49.78;;;;;;;16.04;63.60;101539.00;5068783;28;20052;-72
2022/09/04 00:47:54;;;;;;;47.83;45.90;;;;;;;16.01;64.07;101536.69;4999538;28;20042;-72
2022/09/04 00:50:51;;;;;;;45.75;44.05;;;;;;;15.89;63.96;101530.03;5016677;28;20068;-72
2022/09/04 00:53:37;;;;;;;41.85;40.28;;;;;;;15.90;64.09;101547.69;5002617;28;20500;-72
2022/09/04 00:56:24;;;;;;;39.63;38.13;;;;;;;15.80;64.18;101542.50;5014960;28;20037;-72
2022/09/04 00:59:26;;;;;;;42.80;41.20;;;;;;;15.85;64.42;101550.00;5018602;28;20045;-72
2022/09/04 01:02:00;;;;;;;48.65;46.88;;;;;;;15.81;64.60;101552.19;5016642;28;20125;-72
2022/09/04 01:04:45;;;;;;;36.65;35.30;;;;;;;15.82;64.56;101561.81;5011520;28;20085;-72
2022/09/04 01:07:57;;;;;;;42.05;40.45;;;;;;;15.76;64.88;101562.47;5017544;28;20482;-72
2022/09/04 01:10:28;;;;;;;37.55;36.05;;;;;;;15.75;65.26;101562.66;5016712;28;20030;-72
2022/09/04 01:12:59;;;;;;;36.35;34.80;;;;;;;15.70;64.90;101572.91;5013433;28;20458;-72
2022/09/04 01:15:37;;;;;;;31.27;30.08;;;;;;;15.67;65.10;101567.94;5012536;28;20017;-72
2022/09/04 01:18:30;;;;;;;33.15;31.77;;;;;;;15.64;65.43;101564.63;5020413;28;20111;-72
2022/09/04 01:21:13;;;;;;;30.85;29.52;;;;;;;15.67;65.56;101574.09;4984947;28;20048;-72
2022/09/04 01:24:08;;;;;;;34.67;33.33;;;;;;;15.62;65.77;101574.59;5035851;28;20515;-72
2022/09/04 01:26:43;;;;;;;31.77;30.48;;;;;;;15.61;66.03;101580.91;5072476;28;20089;-72
2022/09/04 01:29:25;;;;;;;34.78;33.28;;;;;;;15.57;65.99;101578.72;5082001;28;20020;-73
2022/09/04 01:32:24;;;;;;;29.08;27.98;;;;;;;15.53;66.28;101580.91;5065563;28;20582;-72
2022/09/04 01:34:58;;;;;;;31.42;30.23;;;;;;;15.44;66.76;101589.88;5075432;28;20024;-72
2022/09/04 01:37:48;;;;;;;29.35;28.23;;;;;;;15.34;67.56;101590.00;5067158;28;20044;-72
2022/09/04 01:40:34;;;;;;;31.10;29.93;;;;;;;15.34;67.67;101599.81;5074852;28;20074;-72
2022/09/04 01:43:11;;;;;;;29.45;28.30;;;;;;;15.32;67.84;101597.31;5073571;28;20061;-72
2022/09/04 01:46:04;;;;;;;32.35;31.13;;;;;;;15.28;67.85;101595.97;5079278;28;20144;-72
2022/09/04 01:48:39;;;;;;;35.35;33.55;;;;;;;15.21;68.11;101589.66;5076731;28;20028;-72
2022/09/04 01:51:19;;;;;;;39.55;38.00;;;;;;;15.20;68.20;101593.31;5075385;28;20033;-72
2022/09/04 01:53:54;;;;;;;39.37;37.70;;;;;;;15.18;68.45;101601.44;5072065;28;20052;-72
2022/09/04 01:56:41;;;;;;;36.85;35.40;;;;;;;15.18;68.25;101596.13;5076471;28;20043;-72
2022/09/04 01:59:14;;;;;;;36.17;34.78;;;;;;;15.14;68.52;101604.59;5076134;28;20055;-72
2022/09/04 02:01:51;;;;;;;38.05;36.58;;;;;;;15.16;68.50;101606.09;5076331;28;20031;-72
2022/09/04 02:04:25;;;;;;;50.70;48.72;;;;;;;15.13;68.92;101602.91;5072486;28;20047;-72
2022/09/04 02:07:26;;;;;;;47.58;45.83;;;;;;;15.13;68.75;101614.38;5076604;28;20038;-72
2022/09/04 02:10:13;;;;;;;42.78;41.10;;;;;;;15.00;68.54;101582.09;5078710;28;20028;-73
2022/09/04 02:12:50;;;;;;;49.83;47.83;;;;;;;15.10;69.15;101604.06;5070712;28;20028;-72
2022/09/04 02:15:42;;;;;;;47.97;46.15;;;;;;;15.14;69.09;101610.75;5075321;28;20136;-72
2022/09/04 02:18:12;;;;;;;48.72;46.92;;;;;;;15.10;69.37;101609.41;5069495;28;20020;-72
2022/09/04 02:20:44;;;;;;;49.72;47.88;;;;;;;15.10;69.13;101613.88;5078710;28;20107;-72
2022/09/04 02:23:28;;;;;;;51.75;49.78;;;;;;;15.11;69.18;101611.06;5076226;28;20032;-72
2022/09/04 02:26:21;;;;;;;55.40;53.30;;;;;;;15.01;69.24;101605.06;5067821;28;20498;-72
2022/09/04 02:29:10;;;;;;;49.70;47.80;;;;;;;15.04;69.36;101610.03;5071543;28;20155;-72
2022/09/04 02:31:53;;;;;;;54.05;51.88;;;;;;;14.95;69.06;101595.06;5075485;28;20127;-72
2022/09/04 02:34:38;;;;;;;50.70;48.78;;;;;;;14.98;69.35;101602.69;5066554;28;20024;-72
2022/09/04 02:37:27;;;;;;;48.00;45.90;;;;;;;15.01;69.45;101605.06;5050254;28;20040;-73
2022/09/04 02:40:32;;;;;;;47.10;45.35;;;;;;;14.95;69.57;101605.69;5070381;28;20024;-72
2022/09/04 02:43:15;;;;;;;51.88;49.88;;;;;;;14.87;69.75;101605.66;5073856;28;20042;-73
2022/09/04 02:45:49;;;;;;;50.47;48.58;;;;;;;14.82;70.08;101604.28;5077246;28;20024;-73
2022/09/04 02:48:19;;;;;;;55.50;52.97;;;;;;;14.82;69.92;101604.28;5073062;28;20056;-73
2022/09/04 02:51:12;;;;;;;45.35;43.60;;;;;;;14.83;69.90;101607.81;5068958;28;20024;-73
2022/09/04 02:54:01;;;;;;;45.92;44.22;;;;;;;14.78;69.88;101604.78;5077128;28;20082;-72
2022/09/04 02:56:42;;;;;;;47.25;45.40;;;;;;;14.80;70.11;101608.09;5068486;28;20027;-72
2022/09/04 02:59:26;;;;;;;;;;;;;;;14.78;69.97;101612.75;5070912;28;20032;-72
2022/09/04 03:02:11;;;;;;;52.03;49.70;;;;;;;14.77;69.80;101603.94;5074501;28;19957;-73
2022/09/04 03:05:24;;;;;;;58.03;55.78;;;;;;;14.68;70.35;101610.22;5067155;28;20031;-73
2022/09/04 03:08:00;;;;;;;54.65;52.35;;;;;;;14.73;70.17;101613.22;4988780;28;20058;-73
2022/09/04 03:10:50;;;;;;;55.95;53.65;;;;;;;14.69;70.35;101606.56;4987762;28;20450;-73
2022/09/04 03:13:19;;;;;;;55.45;53.00;;;;;;;14.62;70.29;101610.84;4989730;28;20491;-73
2022/09/04 03:15:51;;;;;;;55.80;53.67;;;;;;;14.62;70.11;101616.16;4972396;28;20873;-73
2022/09/04 03:18:37;;;;;;;53.53;51.47;;;;;;;14.66;70.52;101622.84;4993283;28;20598;-73
2022/09/04 03:21:11;;;;;;;53.72;51.75;;;;;;;14.63;70.52;101628.44;5006638;28;20029;-74
2022/09/04 03:23:47;;;;;;;55.95;53.85;;;;;;;14.58;70.58;101620.94;4992505;28;20038;-73
2022/09/04 03:26:32;;;;;;;52.88;50.85;;;;;;;14.45;70.92;101609.06;4990488;28;20039;-73
2022/09/04 03:29:13;;;;;;;56.88;54.67;;;;;;;14.49;71.24;101624.53;4994126;28;20523;-73
2022/09/04 03:31:45;;;;;;;53.53;51.55;;;;;;;14.54;70.67;101624.03;4994880;28;20073;-73
2022/09/04 03:34:24;;;;;;;64.13;61.53;;;;;;;14.44;70.75;101610.03;4997344;28;20038;-72
2022/09/04 03:37:23;;;;;;;63.28;60.95;;;;;;;14.52;71.10;101620.72;4975530;28;20042;-72
2022/09/04 03:40:04;;;;;;;57.67;55.45;;;;;;;14.45;71.10;101625.00;4976927;28;20046;-73
2022/09/04 03:42:48;;;;;;;54.40;52.33;;;;;;;14.43;70.84;101626.97;5003812;28;20479;-73
2022/09/04 03:45:42;;;;;;;57.03;54.70;;;;;;;14.24;71.90;101612.91;5085492;28;20024;-73
2022/09/04 03:48:26;;;;;;;52.42;50.10;;;;;;;14.28;72.17;101632.00;5081943;28;20050;-72
2022/09/04 03:51:16;;;;;;;52.97;50.80;;;;;;;14.27;72.18;101636.50;5058933;28;20021;-72
2022/09/04 03:54:01;;;;;;;48.80;47.00;;;;;;;14.16;71.80;101632.25;5072291;28;20115;-72
2022/09/04 03:56:45;;;;;;;41.58;39.95;;;;;;;14.10;72.49;101630.22;5073346;28;20020;-72
2022/09/04 03:59:28;;;;;;;46.22;44.33;;;;;;;13.94;72.87;101622.97;5080876;28;20043;-72
2022/09/04 04:02:08;;;;;;;40.28;38.65;;;;;;;13.99;72.72;101631.28;5082167;28;20035;-72
2022/09/04 04:05:00;;;;;;;39.70;38.10;;;;;;;13.95;73.21;101635.22;5082067;28;20488;-72
2022/09/04 04:07:57;;;;;;;37.33;35.83;;;;;;;13.77;73.68;101606.06;5083942;28;20111;-72
2022/09/04 04:10:32;;;;;;;39.85;38.25;;;;;;;13.83;73.42;101625.00;5084877;28;20016;-72
2022/09/04 04:13:35;;;;;;;36.00;34.53;;;;;;;13.84;74.45;101634.66;5073572;28;20161;-72
2022/09/04 04:16:12;;;;;;;40.42;38.90;;;;;;;13.82;74.55;101645.41;5085298;28;20029;-72
2022/09/04 04:18:47;;;;;;;38.90;37.33;;;;;;;13.79;74.67;101648.38;5069681;28;20477;-72
2022/09/04 04:21:30;;;;;;;42.85;41.25;;;;;;;13.76;74.18;101652.16;5073916;28;20557;-72
2022/09/04 04:24:28;;;;;;;35.67;34.25;;;;;;;13.77;74.23;101655.66;5072794;28;20507;-72
2022/09/04 04:27:24;;;;;;;42.08;40.38;;;;;;;13.76;74.92;101656.63;5074035;28;20025;-73
2022/09/04 04:30:08;;;;;;;43.15;41.42;;;;;;;13.75;74.57;101666.41;5070590;28;20028;-72
2022/09/04 04:32:49;;;;;;;46.10;44.35;;;;;;;13.76;74.21;101667.22;5079002;28;20101;-72
2022/09/04 04:35:48;;;;;;;42.97;41.35;;;;;;;13.75;74.14;101673.53;5083220;28;20017;-72
2022/09/04 04:38:49;;;;;;;47.88;46.08;;;;;;;13.75;74.23;101669.06;5075677;28;20027;-72
2022/09/04 04:42:03;;;;;;;41.40;39.83;;;;;;;13.71;74.75;101672.16;5024542;28;20405;-72
2022/09/04 04:47:50;;;;;;;56.15;53.45;;;;;;;13.62;75.65;101667.75;5084121;28;20039;-72
2022/09/04 04:50:26;;;;;;;49.15;47.30;;;;;;;13.62;75.47;101681.03;5081687;28;20024;-72
2022/09/04 04:53:01;;;;;;;49.28;47.42;;;;;;;13.56;75.43;101683.28;5075853;28;20056;-72
2022/09/04 04:55:38;;;;;;;52.63;50.60;;;;;;;13.60;75.49;101698.91;5074409;28;20069;-72
2022/09/04 04:58:36;;;;;;;50.20;48.15;;;;;;;13.57;75.98;101700.88;5077085;28;20058;-72
2022/09/04 05:01:31;;;;;;;50.97;48.97;;;;;;;13.56;76.21;101708.97;5071268;28;20513;-72
2022/09/04 05:04:18;;;;;;;54.55;52.45;;;;;;;13.51;76.61;101709.41;5076388;28;20565;-72
2022/09/04 05:06:55;;;;;;;53.90;51.85;;;;;;;13.51;76.50;101713.88;5070999;28;20024;-72
2022/09/04 05:09:31;;;;;;;55.03;52.80;;;;;;;13.54;76.40;101719.75;5084023;28;20028;-72
2022/09/04 05:12:23;;;;;;;54.47;52.33;;;;;;;13.58;75.88;101718.44;5082809;28;20031;-72
2022/09/04 05:15:13;;;;;;;57.20;55.03;;;;;;;13.62;76.22;101718.16;5072017;28;20029;-72
2022/09/04 05:18:00;;;;;;;56.50;53.97;;;;;;;13.63;75.77;101718.03;5083512;28;20038;-72
2022/09/04 05:20:36;;;;;;;54.45;52.28;;;;;;;13.66;76.22;101724.84;5073437;28;20024;-73
2022/09/04 05:23:29;;;;;;;52.30;50.28;;;;;;;13.70;75.61;101731.53;5074638;28;20475;-73
2022/09/04 05:26:17;;;;;;;48.72;46.90;;;;;;;13.70;76.25;101731.53;5075789;28;20043;-73
2022/09/04 05:29:04;;;;;;;49.63;47.67;;;;;;;13.66;76.13;101727.50;5077469;28;20074;-73
2022/09/04 05:31:38;;;;;;;50.90;48.90;;;;;;;13.58;75.96;101718.44;5075976;28;20076;-72
2022/09/04 05:34:38;;;;;;;48.78;46.78;;;;;;;13.76;76.28;101742.38;5076995;28;20025;-72
2022/09/04 05:37:14;;;;;;;51.72;49.72;;;;;;;13.74;75.90;101749.63;5063949;28;20020;-73
2022/09/04 05:39:45;;;;;;;52.88;50.78;;;;;;;13.71;76.34;101762.34;5074787;28;20120;-73
2022/09/04 05:42:35;;;;;;;53.83;51.78;;;;;;;13.76;76.31;101752.13;5077087;28;20032;-73
2022/09/04 05:45:28;;;;;;;50.88;48.88;;;;;;;13.83;76.55;101769.13;5070751;28;20124;-73
2022/09/04 05:48:15;;;;;;;56.20;53.45;;;;;;;13.89;76.41;101763.25;5072223;28;20019;-73
2022/09/04 05:51:06;;;;;;;49.17;47.22;;;;;;;13.86;76.65;101752.91;5072927;28;20067;-73
2022/09/04 05:53:46;;;;;;;;;;;;;;;13.98;75.96;101767.66;5079765;28;20104;-73
2022/09/04 05:56:27;;;;;;;48.43;46.50;;;;;;;14.11;76.02;101772.59;5060089;28;20296;-73
2022/09/04 05:59:11;;;;;;;49.15;47.05;;;;;;;14.20;75.72;101778.81;5073592;28;20037;-73
2022/09/04 06:01:52;;;;;;;46.22;44.33;;;;;;;14.27;76.31;101771.91;5070057;28;20050;-73
2022/09/04 06:04:38;;;;;;;42.75;41.05;;;;;;;14.42;75.17;101779.34;5072400;28;20032;-73
2022/09/04 06:07:35;;;;;;;42.38;40.70;;;;;;;14.47;74.92;101782.38;5069763;28;20028;-73
2022/09/04 06:10:18;;;;;;;44.90;43.20;;;;;;;14.53;74.58;101777.28;5070393;28;20031;-73
2022/09/04 06:12:59;;;;;;;47.55;45.75;;;;;;;14.63;74.56;101782.53;5073395;28;20035;-72
2022/09/04 06:15:39;;;;;;;48.03;46.13;;;;;;;14.70;74.24;101780.94;5071964;28;20657;-73
2022/09/04 06:18:31;;;;;;;54.58;52.47;;;;;;;14.81;74.45;101780.69;5074413;28;20039;-73
2022/09/04 06:20:56;;;;;;;62.97;60.60;;;;;;;14.83;73.80;101780.53;5070382;28;20031;-73
2022/09/04 06:23:47;;;;;;;61.15;58.85;;;;;;;14.88;73.63;101790.72;5071356;28;20029;-73
2022/09/04 06:26:34;;;;;;;60.95;58.65;;;;;;;14.99;73.35;101793.09;5070342;28;20111;-73
2022/09/04 06:29:18;;;;;;;57.13;54.83;;;;;;;15.04;72.68;101792.63;5069613;28;20036;-73
2022/09/04 06:32:03;;;;;;;48.38;46.53;;;;;;;15.07;72.69;101787.84;5067337;28;20085;-73
2022/09/04 06:34:59;;;;;;;48.30;46.40;;;;;;;15.13;72.66;101789.84;5069506;28;20032;-73
2022/09/04 06:37:55;;;;;;;44.42;42.33;;;;;;;15.06;72.50;101794.13;5068065;28;20091;-73
2022/09/04 06:40:31;;;;;;;44.72;42.83;;;;;;;15.14;72.48;101793.38;5056431;28;20377;-73
2022/09/04 06:43:26;;;;;;;45.33;43.58;;;;;;;15.23;72.28;101787.94;5067106;28;20131;-73
2022/09/04 06:46:06;;;;;;;42.13;40.53;;;;;;;15.32;72.52;101790.66;5068001;28;20047;-73
2022/09/04 06:48:56;;;;;;;41.70;39.83;;;;;;;15.42;72.33;101783.41;5064868;28;20447;-72
2022/09/04 06:52:02;;;;;;;40.13;38.50;;;;;;;15.51;72.00;101789.59;5064802;28;20374;-72
2022/09/04 06:55:08;;;;;;;37.63;36.17;;;;;;;15.67;71.06;101797.63;5063376;28;20805;-71
2022/09/04 06:58:05;;;;;;;35.92;34.53;;;;;;;15.64;71.11;101798.78;4984622;28;20038;-73
2022/09/04 07:00:43;;;;;;;30.98;29.67;;;;;;;15.79;70.86;101806.19;5002500;28;20025;-76
2022/09/04 07:03:33;;;;;;;36.83;35.40;;;;;;;15.89;70.56;101801.56;5003869;28;20041;-72
2022/09/04 07:06:27;;;;;;;43.88;42.03;;;;;;;15.90;70.03;101803.22;5002273;28;20564;-73
2022/09/04 07:09:24;;;;;;;42.78;41.17;;;;;;;16.14;70.18;101801.63;5002552;28;20045;-73
2022/09/04 07:12:23;;;;;;;52.72;50.42;;;;;;;16.55;69.37;101807.00;4983243;28;20040;-73
2022/09/04 07:15:16;;;;;;;60.28;58.00;;;;;;;17.25;66.74;101809.97;5003331;28;20252;-73
2022/09/04 07:18:14;;;;;;;48.10;46.20;;;;;;;17.50;65.67;101809.88;4985198;28;20053;-72
2022/09/04 07:20:51;;;;;;;35.85;34.42;;;;;;;18.21;64.24;101815.28;5001060;28;20030;-72
2022/09/04 07:23:25;;;;;;;33.10;31.15;;;;;;;18.62;63.09;101821.16;5001848;28;20037;-72
2022/09/04 07:26:09;;;;;;;33.78;32.10;;;;;;;19.51;60.65;101828.50;5000895;28;20038;-72
2022/09/04 07:28:50;;;;;;;28.88;27.70;;;;;;;19.81;59.07;101826.66;5039126;28;20102;-72
2022/09/04 07:31:23;;;;;;;;;;;;;;;20.28;57.95;101829.88;5073107;28;20508;-72
2022/09/04 07:33:56;;;;;;;44.65;42.90;;;;;;;20.33;58.62;101828.25;5070590;28;19935;-73
2022/09/04 07:36:23;;;;;;;52.50;50.17;;;;;;;20.58;57.02;101829.75;5050620;28;20012;-73
2022/09/04 07:39:03;;;;;;;58.63;56.25;;;;;;;20.73;57.38;101828.69;5068978;28;20077;-74
2022/09/04 07:41:33;;;;;;;51.13;49.00;;;;;;;20.87;56.89;101829.63;5070702;28;20051;-73
2022/09/04 07:44:11;;;;;;;52.27;50.00;;;;;;;20.64;57.53;101834.38;5067025;28;20336;-73
2022/09/04 07:46:52;;;;;;;46.88;44.83;;;;;;;20.52;58.00;101828.66;5067071;28;20305;-73
2022/09/04 07:49:25;;;;;;;43.78;42.05;;;;;;;20.69;57.90;101837.31;5066416;28;20033;-75
2022/09/04 07:51:58;;;;;;;44.50;42.75;;;;;;;21.09;56.55;101843.00;5067481;28;20554;-73
2022/09/04 07:54:33;;;;;;;43.85;42.10;;;;;;;21.55;56.71;101842.47;5071025;28;20035;-73
2022/09/04 07:57:29;;;;;;;43.10;41.22;;;;;;;21.60;55.81;101829.31;5070103;28;20043;-74
2022/09/04 08:00:09;;;;;;;38.50;37.05;;;;;;;21.97;54.78;101841.44;5070362;28;20020;-73
2022/09/04 08:03:00;;;;;;;32.78;31.48;;;;;;;22.08;54.91;101847.25;5072077;28;20072;-73
2022/09/04 08:06:12;;;;;;;30.02;28.83;;;;;;;21.79;54.85;101854.59;5067688;28;20097;-73
2022/09/04 08:09:03;;;;;;;30.70;29.38;;;;;;;22.06;54.94;101850.16;5071172;28;20059;-73
2022/09/04 08:11:31;;;;;;;27.17;26.00;;;;;;;22.46;53.80;101850.28;5072355;28;20376;-73
2022/09/04 08:14:10;;;;;;;23.45;22.50;;;;;;;22.93;53.30;101851.13;5079035;28;20020;-73
2022/09/04 08:16:57;;;;;;;23.27;22.33;;;;;;;24.03;52.41;101863.94;5055091;28;20051;-73
2022/09/04 08:19:49;;;;;;;21.42;20.52;;;;;;;24.13;51.05;101869.72;5075100;28;20035;-73
2022/09/04 08:22:22;;;;;;;20.20;19.17;;;;;;;23.75;51.50;101859.72;5074165;28;20054;-73
2022/09/04 08:25:09;;;;;;;20.33;19.52;;;;;;;23.24;52.76;101871.22;5073374;28;20027;-73
2022/09/04 08:28:09;;;;;;;18.15;17.45;;;;;;;22.99;52.77;101866.47;5076059;28;20039;-70
2022/09/04 08:30:46;;;;;;;19.25;18.45;;;;;;;22.93;52.80;101871.81;5071589;28;20036;-72
2022/09/04 08:33:18;;;;;;;20.25;19.45;;;;;;;22.27;54.50;101865.31;5073765;28;20075;-70
2022/09/04 08:36:02;;;;;;;19.75;18.95;;;;;;;23.12;54.32;101864.81;5051120;28;20036;-69
2022/09/04 08:38:44;;;;;;;21.33;20.42;;;;;;;24.04;52.47;101879.09;5073819;28;20086;-69
2022/09/04 08:41:44;;;;;;;19.58;18.73;;;;;;;23.98;51.83;101885.34;5075955;28;20495;-69
2022/09/04 08:44:50;;;;;;;20.42;19.63;;;;;;;24.18;51.47;101886.06;5073582;28;20036;-69
2022/09/04 08:47:58;;;;;;;19.45;18.38;;;;;;;24.28;51.21;101884.78;5055632;28;20093;-70
2022/09/04 08:50:43;;;;;;;19.75;18.85;;;;;;;24.59;50.64;101882.13;5060998;28;20119;-70
2022/09/04 08:53:27;;;;;;;19.05;18.25;;;;;;;24.70;50.69;101887.88;5072027;28;20057;-70
2022/09/04 08:56:17;;;;;;;20.10;19.20;;;;;;;25.48;49.16;101889.25;5078558;28;20046;-71
2022/09/04 08:59:04;;;;;;;21.05;20.15;;;;;;;25.16;49.96;101879.38;5074052;28;20086;-70
2022/09/04 09:02:02;;;;;;;21.67;20.67;;;;;;;25.54;49.65;101891.06;5076851;28;20127;-70
2022/09/04 09:04:42;;;;;;;21.50;20.60;;;;;;;26.19;47.84;101898.63;5072972;28;20024;-69
2022/09/04 09:07:19;;;;;;;22.40;21.50;;;;;;;26.58;47.70;101899.97;5075410;28;20063;-70
2022/09/04 09:10:11;;;;;;;22.95;21.67;;;;;;;26.64;47.21;101898.25;5073897;28;20032;-69
2022/09/04 09:13:06;;;;;;;24.33;23.23;;;;;;;26.94;47.14;101903.59;5061162;28;20024;-69
2022/09/04 09:15:40;;;;;;;23.42;22.23;;;;;;;27.37;46.57;101899.75;5074246;28;20028;-70
2022/09/04 09:18:50;;;;;;;25.15;24.08;;;;;;;27.28;46.65;101902.00;5071133;28;20024;-69
2022/09/04 09:21:39;;;;;;;26.42;25.33;;;;;;;27.10;46.70;101899.34;4979454;28;20038;-70
2022/09/04 09:24:31;;;;;;;25.07;24.07;;;;;;;26.97;47.22;101903.13;5002044;28;20034;-70
2022/09/04 09:27:18;;;;;;;27.35;26.25;;;;;;;26.67;47.84;101905.88;4998639;28;20030;-70
2022/09/04 09:29:43;;;;;;;26.55;25.45;;;;;;;26.70;47.44;101910.84;4998214;28;20092;-70
2022/09/04 09:32:39;;;;;;;32.47;31.17;;;;;;;26.01;48.80;101903.03;4999992;28;20060;-70
2022/09/04 09:35:28;;;;;;;27.88;26.75;;;;;;;25.59;49.04;101907.47;4999123;28;20017;-70
2022/09/04 09:38:27;;;;;;;26.25;25.25;;;;;;;26.69;47.96;101890.22;4998018;28;20046;-70
2022/09/04 09:41:46;;;;;;;25.92;24.75;;;;;;;26.89;47.94;101895.31;4998898;28;20033;-70
2022/09/04 09:44:33;;;;;;;28.55;27.27;;;;;;;27.02;47.27;101895.13;4923356;29;20338;-70
2022/09/04 09:47:22;;;;;;;26.80;25.52;;;;;;;26.55;47.75;101886.88;4922121;29;20031;-70
2022/09/04 09:50:20;;;;;;;26.83;25.83;;;;;;;27.87;46.31;101888.38;4921378;29;20028;-70
2022/09/04 09:52:51;;;;;;;26.65;25.55;;;;;;;27.67;46.46;101885.19;4921033;29;20091;-70
2022/09/04 09:55:20;;;;;;;27.92;26.85;;;;;;;28.75;46.08;101888.06;4920530;29;20111;-70
2022/09/04 09:58:12;;;;;;;28.25;26.88;;;;;;;28.08;45.83;101891.47;4962691;28;20042;-70
2022/09/04 10:00:46;;;;;;;27.48;26.17;;;;;;;28.84;45.06;101885.75;4998023;28;20041;-70
2022/09/04 10:03:48;;;;;;;27.20;26.15;;;;;;;29.86;44.05;101895.38;5012735;28;20060;-70
2022/09/04 10:07:09;;;;;;;25.17;23.85;;;;;;;30.07;42.33;101896.44;5013526;28;20034;-70
2022/09/04 10:09:53;;;;;;;27.50;26.48;;;;;;;30.53;42.08;101896.09;4965801;28;20508;-70
2022/09/04 10:12:36;;;;;;;26.63;25.55;;;;;;;30.06;43.05;101892.06;4966837;28;20038;-70
2022/09/04 10:15:21;;;;;;;31.95;30.73;;;;;;;29.02;43.60;101887.41;4965565;28;20047;-70
2022/09/04 10:17:59;;;;;;;29.85;28.58;;;;;;;28.03;45.25;101889.47;4964908;28;20452;-70
2022/09/04 10:20:56;;;;;;;29.67;28.38;;;;;;;28.02;45.40;101887.00;4958953;28;20034;-70
2022/09/04 10:23:47;;;;;;;34.55;33.15;;;;;;;28.83;45.31;101889.53;4999059;28;20371;-70
2022/09/04 10:26:34;;;;;;;30.15;28.73;;;;;;;28.13;45.46;101877.16;4958276;28;20059;-70
2022/09/04 10:29:30;;;;;;;33.08;31.67;;;;;;;29.29;46.00;101882.13;4960067;28;20462;-70
2022/09/04 10:32:05;;;;;;;31.05;29.85;;;;;;;29.85;42.94;101885.56;4960390;28;20042;-70
2022/09/04 10:34:37;;;;;;;30.08;28.77;;;;;;;30.06;42.84;101888.53;4960069;28;20043;-70
2022/09/04 10:37:08;;;;;;;31.02;29.67;;;;;;;31.09;41.91;101884.81;4960086;28;20027;-70
2022/09/04 10:43:09;;;;;;;33.33;31.75;;;;;;;30.49;41.16;101887.63;4965022;28;20522;-70
2022/09/04 10:45:43;;;;;;;34.33;32.92;;;;;;;29.91;42.14;101892.72;5010506;28;20114;-70
2022/09/04 10:48:12;;;;;;;29.10;27.92;;;;;;;29.04;43.45;101887.97;5009383;28;20033;-70
2022/09/04 10:50:58;;;;;;;30.67;29.48;;;;;;;29.62;42.87;101894.78;5008672;28;20124;-70
2022/09/04 10:54:04;;;;;;;32.92;31.35;;;;;;;29.43;43.27;101875.22;5011530;28;20028;-70
2022/09/04 10:56:46;;;;;;;33.28;31.50;;;;;;;30.14;41.32;101891.63;5010941;28;20139;-70
2022/09/04 10:59:43;;;;;;;33.65;32.15;;;;;;;29.71;42.51;101889.75;4992357;28;20022;-70
2022/09/04 11:02:23;;;;;;;31.77;30.52;;;;;;;30.04;41.96;101883.34;5017672;28;20124;-69
2022/09/04 11:04:51;;;;;;;30.33;29.10;;;;;;;29.86;42.39;101895.38;5075975;28;20032;-70
2022/09/04 11:07:35;;;;;;;36.35;34.85;;;;;;;28.33;45.22;101887.56;5074943;28;20037;-70
2022/09/04 11:10:20;;;;;;;35.35;33.85;;;;;;;27.82;45.53;101874.66;5072685;28;20612;-70
2022/09/04 11:12:54;;;;;;;29.52;27.92;;;;;;;28.01;45.64;101882.66;5070965;28;20389;-70
2022/09/04 11:15:50;;;;;;;33.95;32.55;;;;;;;28.74;44.71;101877.44;5068076;28;20047;-69
2022/09/04 11:18:21;;;;;;;25.90;24.70;;;;;;;29.52;43.66;101884.59;5070267;28;20021;-69
2022/09/04 11:20:52;;;;;;;;;;;;;;;29.99;43.44;101888.72;5072488;28;20722;-70
2022/09/04 11:23:39;;;;;;;26.20;25.10;;;;;;;29.23;43.49;101889.38;5071161;28;19939;-69
2022/09/04 11:26:10;;;;;;;29.88;28.67;;;;;;;28.96;44.56;101889.19;5073997;28;20111;-70
2022/09/04 11:29:11;;;;;;;28.17;26.88;;;;;;;29.34;44.14;101884.91;5071250;28;20099;-70
2022/09/04 11:31:58;;;;;;;29.75;28.45;;;;;;;29.23;43.90;101891.28;5068090;28;20524;-70
2022/09/04 11:34:49;;;;;;;29.27;28.10;;;;;;;29.58;42.75;101887.41;5071838;28;20047;-69
2022/09/04 11:37:23;;;;;;;;;;;;;;;29.31;43.88;101888.09;5072592;28;20262;-69
2022/09/04 11:40:19;;;;;;;26.58;25.52;;;;;;;29.67;43.42;101891.31;5076325;28;19909;-69
2022/09/04 11:43:18;;;;;;;29.27;28.08;;;;;;;28.51;44.99;101890.13;5075152;28;20028;-69
2022/09/04 11:46:06;;;;;;;27.98;26.88;;;;;;;28.91;43.66;101889.13;5074400;28;20490;-70
2022/09/04 11:49:04;;;;;;;29.42;28.23;;;;;;;30.22;42.82;101884.06;5073883;28;20024;-70
2022/09/04 11:51:43;;;;;;;29.17;28.00;;;;;;;31.82;40.82;101886.84;5076471;28;20016;-70
2022/09/04 11:54:22;;;;;;;29.60;28.30;;;;;;;31.83;40.09;101888.47;5076400;28;20048;-70
2022/09/04 11:57:09;;;;;;;31.50;30.30;;;;;;;31.20;41.04;101891.16;5074917;28;20321;-70
2022/09/04 11:59:56;;;;;;;31.95;30.65;;;;;;;30.29;42.06;101890.97;5074263;28;20024;-70
2022/09/04 12:02:32;;;;;;;35.53;34.13;;;;;;;29.47;43.41;101883.72;5074647;28;20466;-69
2022/09/04 12:05:03;;;;;;;29.13;27.92;;;;;;;29.05;42.91;101882.28;5078015;28;20115;-70
2022/09/04 12:07:40;;;;;;;30.60;29.30;;;;;;;28.39;43.60;101881.16;5076256;28;20032;-69
2022/09/04 12:10:48;;;;;;;29.95;28.55;;;;;;;29.45;42.59;101875.00;5077445;28;20051;-69
2022/09/04 12:13:45;;;;;;;32.13;30.58;;;;;;;29.05;43.57;101879.56;5074258;28;20028;-69
2022/09/04 12:16:41;;;;;;;31.77;30.48;;;;;;;28.54;44.10;101888.78;5062678;28;20028;-69
2022/09/04 12:19:09;;;;;;;27.70;26.50;;;;;;;29.40;43.35;101878.47;5074103;28;20032;-69
2022/09/04 12:21:57;;;;;;;26.23;25.20;;;;;;;30.33;41.86;101894.84;5077521;28;20028;-69
2022/09/04 12:24:44;;;;;;;26.38;25.38;;;;;;;30.03;42.07;101895.31;5075230;28;20023;-69
2022/09/04 12:27:41;;;;;;;31.08;29.77;;;;;;;29.09;42.87;101890.78;5073631;28;20103;-69
2022/09/04 12:30:17;;;;;;;29.10;27.90;;;;;;;29.83;42.28;101893.16;5067798;28;20675;-69
2022/09/04 12:32:53;;;;;;;31.38;30.17;;;;;;;28.82;43.38;101890.63;5076034;28;20453;-70
2022/09/04 12:35:53;;;;;;;28.35;27.15;;;;;;;29.73;43.07;101895.78;5071811;28;20029;-69
2022/09/04 12:38:39;;;;;;;25.25;24.27;;;;;;;30.62;41.25;101889.09;5076099;28;20112;-69
2022/09/04 12:41:15;;;;;;;24.65;23.63;;;;;;;29.54;42.38;101887.88;5071560;28;20671;-69